Time;durP1;ratioP1;P1;durP2;ratioP2;P2;SDS_P1;SDS_P2;PMS_P1;PMS_P2;Temp;Humidity;BMP_temperature;BMP_pressure;BME280_temperature;BME280_humidity;BME280_pressure;Samples;Min_cycle;Max_cycle;Signal;HPM_P1;HPM_P2
2021/09/24 00:01:26;;;;;;;3.28;1.73;;;;;;;19.98;60.51;100084.25;5097446;28;20035;-60
2021/09/24 00:03:53;;;;;;;;;;;;;;;19.84;61.18;100087.44;5108838;28;20055;-60
2021/09/24 00:06:21;;;;;;;2.45;1.63;;;;;;;19.85;60.83;100086.25;5092998;28;19923;-61
2021/09/24 00:08:47;;;;;;;2.45;1.80;;;;;;;19.74;61.16;100064.44;5111630;28;20048;-61
2021/09/24 00:11:15;;;;;;;4.50;1.65;;;;;;;19.82;61.08;100084.13;5100999;28;20046;-61
2021/09/24 00:13:42;;;;;;;3.28;1.77;;;;;;;19.81;60.95;100076.81;5109139;28;20055;-62
2021/09/24 00:16:08;;;;;;;4.28;1.88;;;;;;;19.71;61.41;100070.78;5085987;28;20093;-62
2021/09/24 00:18:35;;;;;;;3.78;1.92;;;;;;;19.75;60.81;100072.56;5103515;28;20082;-63
2021/09/24 00:21:02;;;;;;;1.15;1.00;;;;;;;19.73;61.12;100083.44;5091930;28;20426;-63
2021/09/24 00:23:29;;;;;;;5.75;1.70;;;;;;;19.70;60.94;100058.66;5115306;27;20131;-63
2021/09/24 00:25:56;;;;;;;5.72;2.55;;;;;;;19.75;60.83;100083.88;5087568;28;20051;-64
2021/09/24 00:28:23;;;;;;;2.15;1.30;;;;;;;19.67;60.99;100055.69;5104341;27;20107;-63
2021/09/24 00:30:50;;;;;;;2.35;1.55;;;;;;;19.76;60.72;100081.88;5108597;27;20044;-64
2021/09/24 00:33:17;;;;;;;3.35;1.38;;;;;;;19.79;60.85;100072.69;5099469;28;20039;-63
2021/09/24 00:35:44;;;;;;;1.85;1.08;;;;;;;19.82;60.48;100078.47;5099114;28;20044;-63
2021/09/24 00:38:11;;;;;;;2.20;1.25;;;;;;;19.86;60.28;100078.56;5098599;28;20039;-63
2021/09/24 00:40:38;;;;;;;2.13;1.33;;;;;;;19.93;59.77;100059.00;5102129;28;20096;-63
2021/09/24 00:43:05;;;;;;;1.38;0.73;;;;;;;19.96;59.46;100055.41;5104011;28;20051;-63
2021/09/24 00:45:31;;;;;;;1.83;1.33;;;;;;;20.02;59.11;100042.66;5105294;28;20044;-63
2021/09/24 00:47:58;;;;;;;12.43;1.45;;;;;;;20.20;58.72;100043.22;5101030;28;20044;-64
2021/09/24 00:50:27;;;;;;;2.22;1.15;;;;;;;20.36;58.66;100035.63;5090226;28;20139;-65
2021/09/24 00:52:54;;;;;;;2.22;1.10;;;;;;;20.44;58.36;100050.81;5093043;28;20044;-62
2021/09/24 00:55:22;;;;;;;1.60;0.90;;;;;;;20.43;58.42;100048.38;5096519;28;20039;-62
2021/09/24 00:57:49;;;;;;;1.95;0.82;;;;;;;20.39;58.28;100047.44;5110108;28;20483;-64
2021/09/24 01:00:17;;;;;;;3.30;1.08;;;;;;;20.37;58.53;100036.44;5093537;28;20052;-63
2021/09/24 01:02:44;;;;;;;3.40;1.05;;;;;;;20.34;58.46;100048.50;5116802;28;20047;-64
2021/09/24 01:05:13;;;;;;;4.45;1.85;;;;;;;20.36;58.73;100057.47;5105585;28;20573;-62
2021/09/24 01:07:43;;;;;;;2.97;1.20;;;;;;;20.42;58.34;100044.72;5083758;28;20046;-61
2021/09/24 01:10:11;;;;;;;;;;;;;;;20.13;59.20;100048.66;5103846;28;20435;-61
2021/09/24 01:12:38;;;;;;;3.50;1.42;;;;;;;20.25;58.68;100045.81;5102872;28;19927;-62
2021/09/24 01:15:11;;;;;;;0.98;0.80;;;;;;;20.31;58.52;100060.59;5085537;28;20119;-60
2021/09/24 01:17:38;;;;;;;2.03;1.25;;;;;;;20.23;58.42;100036.84;5100620;27;20096;-60
2021/09/24 01:20:08;;;;;;;1.33;0.80;;;;;;;20.36;58.40;100054.66;5101046;28;20048;-59
2021/09/24 01:22:36;;;;;;;1.52;1.00;;;;;;;20.38;58.29;100052.28;5102564;28;20047;-60
2021/09/24 01:25:04;;;;;;;1.73;0.93;;;;;;;20.21;58.69;100039.22;5103969;28;20404;-60
2021/09/24 01:27:32;;;;;;;0.98;0.82;;;;;;;20.24;58.81;100049.00;5108658;28;20487;-65
2021/09/24 01:29:59;;;;;;;1.10;0.70;;;;;;;20.17;59.07;100054.44;5101425;28;20085;-61
2021/09/24 01:32:26;;;;;;;2.67;0.85;;;;;;;20.09;59.24;100051.38;5095533;28;20065;-61
2021/09/24 01:34:53;;;;;;;3.97;1.17;;;;;;;20.16;59.06;100056.47;5106478;28;20093;-62
2021/09/24 01:37:19;;;;;;;3.10;0.90;;;;;;;20.09;58.97;100040.06;5108347;28;20097;-63
2021/09/24 01:39:47;;;;;;;1.83;1.30;;;;;;;20.16;59.18;100041.47;5098139;28;20044;-66
2021/09/24 01:42:14;;;;;;;1.25;0.85;;;;;;;20.28;58.59;100036.59;5104436;28;20144;-68
2021/09/24 01:44:40;;;;;;;0.68;0.65;;;;;;;20.02;59.01;100011.50;5095932;28;20048;-70
2021/09/24 01:47:07;;;;;;;2.45;0.80;;;;;;;20.10;59.38;100027.56;5096371;28;20039;-59
2021/09/24 01:49:34;;;;;;;2.03;0.80;;;;;;;20.16;58.87;100024.44;5097663;28;20040;-59
2021/09/24 01:52:02;;;;;;;0.88;0.70;;;;;;;19.97;59.18;100011.75;5075723;28;20563;-61
2021/09/24 01:54:29;;;;;;;1.23;0.75;;;;;;;19.88;59.52;100002.53;5102879;28;20040;-65
2021/09/24 01:56:56;;;;;;;2.53;1.15;;;;;;;19.97;59.75;100010.94;5098584;28;20518;-59
2021/09/24 01:59:23;;;;;;;2.30;0.90;;;;;;;19.91;59.73;100001.84;5094153;28;20104;-65
2021/09/24 02:01:50;;;;;;;3.13;1.33;;;;;;;19.93;59.96;100010.81;5079444;28;20142;-65
2021/09/24 02:04:18;;;;;;;3.75;0.70;;;;;;;19.90;60.18;100000.19;5105575;28;20072;-65
2021/09/24 02:06:45;;;;;;;2.17;0.98;;;;;;;19.97;59.77;99983.41;5091451;28;20087;-65
2021/09/24 02:09:12;;;;;;;1.60;0.93;;;;;;;19.75;60.27;99984.72;5091910;28;20097;-63
2021/09/24 02:11:39;;;;;;;1.83;1.17;;;;;;;19.98;59.57;99973.72;5084298;28;20056;-60
2021/09/24 02:14:06;;;;;;;5.20;1.10;;;;;;;19.93;59.99;99970.28;5109618;28;20065;-62
2021/09/24 02:16:33;;;;;;;1.98;1.25;;;;;;;19.94;59.95;99950.13;5092898;28;20089;-66
2021/09/24 02:19:00;;;;;;;3.28;1.30;;;;;;;19.92;59.88;99954.47;5090852;28;20131;-63
2021/09/24 02:21:27;;;;;;;2.15;1.00;;;;;;;19.97;59.61;99963.56;5102375;28;20059;-67
2021/09/24 02:23:55;;;;;;;1.35;1.02;;;;;;;19.82;60.42;99941.63;5102333;28;20097;-68
2021/09/24 02:26:23;;;;;;;0.90;0.70;;;;;;;19.78;60.67;99946.38;5105729;28;20483;-69
2021/09/24 02:29:08;;;;;;;1.65;1.02;;;;;;;19.70;60.97;99950.19;5104671;28;20044;-65
2021/09/24 02:31:35;;;;;;;0.93;0.60;;;;;;;19.69;61.08;99948.50;5098188;28;20036;-70
2021/09/24 02:34:02;;;;;;;1.75;0.90;;;;;;;19.72;61.21;99964.78;5092031;28;20086;-67
2021/09/24 02:36:29;;;;;;;1.88;0.73;;;;;;;19.70;60.90;99970.00;5098012;28;20051;-63
2021/09/24 02:38:57;;;;;;;2.13;0.93;;;;;;;19.63;61.32;99977.09;5095418;28;20503;-68
2021/09/24 02:41:24;;;;;;;1.27;1.02;;;;;;;19.59;61.13;99978.94;5108130;28;20043;-69
2021/09/24 02:43:51;;;;;;;1.13;0.73;;;;;;;19.59;61.10;99973.28;5096367;28;20124;-63
2021/09/24 02:46:18;;;;;;;2.28;1.17;;;;;;;19.59;61.19;99981.78;5100956;28;20047;-65
2021/09/24 02:48:45;;;;;;;2.10;0.52;;;;;;;19.69;61.13;99986.16;5097551;28;20075;-65
2021/09/24 02:51:12;;;;;;;3.67;0.95;;;;;;;19.82;60.66;99998.31;5102749;28;20036;-66
2021/09/24 02:53:39;;;;;;;0.73;0.63;;;;;;;19.75;60.51;99998.06;5101777;28;20044;-65
2021/09/24 02:56:06;;;;;;;3.65;1.27;;;;;;;19.71;60.74;99997.16;5098716;28;20044;-66
2021/09/24 02:58:33;;;;;;;4.18;2.17;;;;;;;19.73;60.58;99992.78;5108212;28;20047;-66
2021/09/24 03:01:01;;;;;;;1.35;0.73;;;;;;;19.77;60.62;99990.06;5101931;28;20043;-65
2021/09/24 03:03:28;;;;;;;1.30;0.80;;;;;;;19.81;60.54;100013.66;5104558;28;20118;-65
2021/09/24 03:05:55;;;;;;;3.15;1.02;;;;;;;19.71;59.75;99968.81;5099569;28;20411;-64
2021/09/24 03:08:23;;;;;;;1.77;0.82;;;;;;;19.95;59.69;99993.44;5115002;28;20401;-64
2021/09/24 03:10:50;;;;;;;0.80;0.60;;;;;;;20.02;59.11;99968.97;5104786;28;20043;-66
2021/09/24 03:13:17;;;;;;;1.25;0.80;;;;;;;20.13;59.37;99974.97;5096485;28;20044;-66
2021/09/24 03:15:44;;;;;;;1.73;0.95;;;;;;;20.19;59.17;99984.06;5098662;28;20039;-66
2021/09/24 03:18:11;;;;;;;2.53;0.75;;;;;;;20.23;58.97;99984.97;5091135;28;20047;-65
2021/09/24 03:20:37;;;;;;;3.15;1.00;;;;;;;20.21;58.69;99976.03;5103809;28;20081;-65
2021/09/24 03:23:05;;;;;;;6.78;1.05;;;;;;;20.31;58.65;99969.84;5097725;28;20041;-66
2021/09/24 03:25:32;;;;;;;1.65;1.00;;;;;;;20.34;58.24;99941.59;5102435;28;20532;-67
2021/09/24 03:27:59;;;;;;;1.15;0.85;;;;;;;20.45;58.06;99922.03;5101337;28;20044;-63
2021/09/24 03:30:26;;;;;;;2.20;1.10;;;;;;;20.61;57.53;99938.28;5107076;28;20109;-63
2021/09/24 03:32:53;;;;;;;2.88;0.95;;;;;;;20.54;57.48;99931.22;5103258;27;20052;-65
2021/09/24 03:35:20;;;;;;;1.15;0.80;;;;;;;20.52;57.51;99929.94;5075450;28;20047;-66
2021/09/24 03:37:47;;;;;;;1.23;0.85;;;;;;;20.52;57.66;99949.81;5099859;28;20056;-67
2021/09/24 03:40:14;;;;;;;2.38;0.88;;;;;;;20.56;57.63;99942.22;5102433;28;20108;-66
2021/09/24 03:42:41;;;;;;;3.15;0.90;;;;;;;20.53;57.05;99926.75;5104829;28;20471;-64
2021/09/24 03:45:09;;;;;;;1.90;0.80;;;;;;;20.50;57.50;99918.94;5106266;28;20078;-67
2021/09/24 03:47:37;;;;;;;9.32;1.45;;;;;;;20.53;57.56;99932.41;5113758;28;20062;-66
2021/09/24 03:50:05;;;;;;;2.08;1.08;;;;;;;20.54;57.15;99931.22;5097820;28;20410;-65
2021/09/24 03:52:32;;;;;;;3.08;1.25;;;;;;;20.48;57.30;99961.03;5096656;28;20047;-63
2021/09/24 03:54:59;;;;;;;3.13;1.30;;;;;;;20.26;57.57;99950.25;5099250;28;20048;-64
2021/09/24 03:57:26;;;;;;;7.82;1.30;;;;;;;20.24;57.93;99963.94;5101083;28;20044;-63
2021/09/24 03:59:53;;;;;;;2.72;1.52;;;;;;;20.17;58.17;99958.06;5101088;28;20097;-62
2021/09/24 04:02:20;;;;;;;2.83;1.10;;;;;;;20.18;58.12;99954.06;5111283;28;20454;-63
2021/09/24 04:04:47;;;;;;;10.13;1.48;;;;;;;20.13;58.02;99952.28;5105019;28;20126;-63
2021/09/24 04:07:15;;;;;;;3.30;1.17;;;;;;;20.08;58.05;99935.53;5094906;28;20044;-63
2021/09/24 04:09:42;;;;;;;3.28;1.00;;;;;;;20.03;58.34;99936.63;5106893;28;20374;-63
2021/09/24 04:12:09;;;;;;;1.95;0.98;;;;;;;20.03;58.20;99930.97;5114164;28;20050;-62
2021/09/24 04:14:37;;;;;;;1.90;1.20;;;;;;;20.03;57.99;99913.97;5118926;28;20043;-61
2021/09/24 04:17:04;;;;;;;1.48;1.30;;;;;;;19.95;58.64;99917.75;5103334;27;20097;-61
2021/09/24 04:19:31;;;;;;;3.65;0.77;;;;;;;19.90;58.41;99906.69;5108582;28;20052;-63
2021/09/24 04:21:58;;;;;;;1.30;1.13;;;;;;;20.00;58.67;99923.19;5102445;28;20067;-63
2021/09/24 04:24:25;;;;;;;3.58;0.75;;;;;;;19.86;59.12;99919.91;5096065;28;20051;-63
2021/09/24 04:26:52;;;;;;;2.80;1.30;;;;;;;19.93;59.05;99917.31;5100795;27;20064;-62
2021/09/24 04:29:19;;;;;;;2.72;0.90;;;;;;;19.98;58.83;99917.03;5101229;28;20040;-65
2021/09/24 04:31:46;;;;;;;4.00;0.98;;;;;;;19.94;59.01;99913.28;5100542;28;20101;-64
2021/09/24 04:34:13;;;;;;;1.63;0.70;;;;;;;20.01;58.82;99913.50;5101608;28;20040;-62
2021/09/24 04:36:40;;;;;;;4.15;1.73;;;;;;;19.97;58.92;99900.41;5096793;28;20100;-66
2021/09/24 04:39:07;;;;;;;1.73;1.00;;;;;;;20.02;58.65;99900.97;5108990;28;20476;-64
2021/09/24 04:41:34;;;;;;;1.50;1.08;;;;;;;19.59;58.90;99830.84;5105390;28;20043;-64
2021/09/24 04:44:01;;;;;;;2.30;1.73;;;;;;;20.05;58.84;99891.72;5106090;27;20074;-63
2021/09/24 04:46:28;;;;;;;0.65;0.52;;;;;;;19.96;59.07;99895.91;5109292;27;20068;-64
2021/09/24 04:48:55;;;;;;;1.50;0.60;;;;;;;19.92;58.87;99887.28;5091210;28;20143;-68
2021/09/24 04:51:22;;;;;;;2.25;0.85;;;;;;;20.04;58.91;99895.75;5106440;28;20123;-68
2021/09/24 04:53:49;;;;;;;1.45;0.90;;;;;;;19.92;59.16;99883.63;5098914;28;20074;-67
2021/09/24 04:56:16;;;;;;;1.65;1.10;;;;;;;20.11;58.37;99904.47;5109764;27;20040;-66
2021/09/24 04:58:43;;;;;;;1.40;0.63;;;;;;;20.13;58.67;99898.44;5094144;28;20051;-66
2021/09/24 05:01:10;;;;;;;2.60;1.02;;;;;;;20.25;58.03;99889.06;5100848;28;20047;-66
2021/09/24 05:03:39;;;;;;;0.50;0.40;;;;;;;20.15;58.42;99890.41;5108875;28;20055;-69
2021/09/24 05:06:06;;;;;;;1.05;0.73;;;;;;;20.18;57.98;99863.34;5094571;28;20520;-70
2021/09/24 05:08:32;;;;;;;1.13;0.70;;;;;;;20.30;57.85;99888.78;5110882;28;20491;-70
2021/09/24 05:10:59;;;;;;;1.55;0.73;;;;;;;20.27;57.89;99883.84;5104414;28;20483;-70
2021/09/24 05:13:26;;;;;;;1.05;0.80;;;;;;;20.37;57.72;99894.66;5109365;28;20563;-69
2021/09/24 05:15:53;;;;;;;2.20;0.82;;;;;;;20.39;57.60;99891.47;5109313;28;20126;-69
2021/09/24 05:18:20;;;;;;;4.60;1.10;;;;;;;20.57;56.96;99887.13;5085605;28;20074;-69
2021/09/24 05:20:47;;;;;;;1.33;0.80;;;;;;;20.51;56.82;99875.25;5102453;28;20082;-69
2021/09/24 05:23:13;;;;;;;1.42;0.77;;;;;;;20.70;56.71;99888.69;5101112;28;20133;-70
2021/09/24 05:25:40;;;;;;;2.65;0.80;;;;;;;20.70;56.74;99890.72;5109499;28;20170;-68
2021/09/24 05:28:07;;;;;;;0.52;0.47;;;;;;;20.62;56.96;99894.56;5110256;27;20096;-69
2021/09/24 05:30:34;;;;;;;2.53;1.08;;;;;;;20.46;57.06;99898.16;5096748;28;20046;-69
2021/09/24 05:33:01;;;;;;;3.75;0.98;;;;;;;20.43;57.06;99909.41;5097376;28;20131;-57
2021/09/24 05:35:28;;;;;;;1.65;0.80;;;;;;;20.38;57.18;99907.66;5101035;28;20047;-65
2021/09/24 05:37:55;;;;;;;2.15;1.02;;;;;;;20.33;57.22;99910.75;5081390;28;20491;-64
2021/09/24 05:40:22;;;;;;;2.17;0.98;;;;;;;20.25;57.17;99918.22;5103324;28;20126;-71
2021/09/24 05:42:51;;;;;;;0.35;0.28;;;;;;;20.13;57.60;99902.09;5097462;28;20123;-65
2021/09/24 05:45:20;;;;;;;1.17;0.70;;;;;;;20.08;57.61;99899.53;5096635;28;20473;-65
2021/09/24 05:47:47;;;;;;;0.80;0.50;;;;;;;20.05;57.69;99900.25;5095694;28;20140;-65
2021/09/24 05:50:15;;;;;;;1.05;0.70;;;;;;;19.98;57.57;99885.03;5090602;28;20131;-64
2021/09/24 05:52:48;;;;;;;2.38;1.30;;;;;;;20.15;57.00;99889.56;5099824;28;20134;-64
2021/09/24 05:55:17;;;;;;;1.00;0.73;;;;;;;20.12;57.38;99891.13;5095723;28;20044;-63
2021/09/24 05:57:45;;;;;;;6.15;1.00;;;;;;;20.07;57.38;99891.38;5095409;28;20602;-61
2021/09/24 06:00:15;;;;;;;0.98;0.60;;;;;;;19.81;57.21;99846.50;5098841;28;20135;-62
2021/09/24 06:02:43;;;;;;;;;;;;;;;19.96;57.86;99902.38;5096679;28;20539;-64
2021/09/24 06:05:10;;;;;;;0.55;0.50;;;;;;;20.01;57.53;99898.50;5097524;28;19927;-61
2021/09/24 06:07:37;;;;;;;0.90;0.80;;;;;;;19.98;57.39;99908.53;5095565;28;20090;-60
2021/09/24 06:10:07;;;;;;;2.70;0.73;;;;;;;19.95;57.92;99874.44;5106564;28;20485;-61
2021/09/24 06:12:34;;;;;;;0.40;0.40;;;;;;;20.27;58.11;99900.84;5102520;28;20131;-60
2021/09/24 06:15:01;;;;;;;0.38;0.38;;;;;;;20.53;57.87;99904.03;5101998;28;20566;-60
2021/09/24 06:17:28;;;;;;;1.02;0.60;;;;;;;20.67;57.64;99914.13;5089740;28;20138;-61
2021/09/24 06:19:55;;;;;;;2.53;0.90;;;;;;;20.81;57.77;99920.19;5094981;28;20462;-60
2021/09/24 06:22:27;;;;;;;0.28;0.25;;;;;;;20.93;56.68;99917.28;5078699;28;20143;-60
2021/09/24 06:24:54;;;;;;;3.30;1.10;;;;;;;20.90;56.97;99935.03;5101805;28;20135;-60
2021/09/24 06:27:21;;;;;;;1.92;0.60;;;;;;;20.70;57.17;99919.91;5107743;28;20130;-61
2021/09/24 06:29:50;;;;;;;1.77;0.88;;;;;;;20.78;56.74;99920.91;5104542;28;20468;-61
2021/09/24 06:32:18;;;;;;;3.25;1.25;;;;;;;20.83;57.09;99935.66;5103371;28;20078;-61
2021/09/24 06:34:46;;;;;;;1.38;0.70;;;;;;;20.78;57.21;99937.94;5108244;28;20040;-61
2021/09/24 06:37:15;;;;;;;3.95;1.33;;;;;;;20.71;57.16;99920.72;5094565;28;20488;-64
2021/09/24 06:39:43;;;;;;;3.10;0.57;;;;;;;20.56;57.41;99919.53;5110596;28;20078;-65
2021/09/24 06:42:10;;;;;;;3.63;0.93;;;;;;;20.76;57.77;99934.66;5095773;28;20456;-63
2021/09/24 06:44:38;;;;;;;1.73;0.60;;;;;;;20.81;57.36;99942.88;5105212;27;20160;-69
2021/09/24 06:47:05;;;;;;;3.63;1.58;;;;;;;20.87;56.99;99940.63;5097889;28;20135;-63
2021/09/24 06:49:33;;;;;;;3.92;1.10;;;;;;;20.78;57.06;99927.41;5103288;28;20043;-59
2021/09/24 06:52:00;;;;;;;3.65;1.20;;;;;;;20.80;57.00;99919.38;5103498;28;20050;-60
2021/09/24 06:54:27;;;;;;;0.73;0.50;;;;;;;21.06;56.63;99941.53;5100736;27;20056;-59
2021/09/24 06:56:54;;;;;;;3.97;1.10;;;;;;;21.06;56.38;99947.22;5102163;27;20126;-62
2021/09/24 06:59:21;;;;;;;0.73;0.50;;;;;;;20.99;56.96;99966.91;5112014;28;20040;-59
2021/09/24 07:01:48;;;;;;;2.88;0.70;;;;;;;20.90;56.92;99940.72;5103895;28;20127;-60
2021/09/24 07:04:16;;;;;;;1.52;0.75;;;;;;;20.85;57.53;99960.00;5094663;27;20112;-63
2021/09/24 07:06:43;;;;;;;0.30;0.30;;;;;;;20.79;57.89;99953.78;5111849;27;20071;-62
2021/09/24 07:09:11;;;;;;;1.45;0.82;;;;;;;20.79;57.62;99929.06;5105131;27;20044;-59
2021/09/24 07:11:38;;;;;;;1.35;0.70;;;;;;;20.80;57.56;99932.72;5105290;27;20177;-60
2021/09/24 07:14:08;;;;;;;1.60;0.77;;;;;;;20.88;57.40;99947.94;5101352;28;20468;-59
2021/09/24 07:16:38;;;;;;;0.43;0.40;;;;;;;21.05;57.39;99936.22;5111153;27;20581;-60
2021/09/24 07:19:07;;;;;;;0.98;0.77;;;;;;;21.19;56.96;99962.13;5117573;27;20566;-60
2021/09/24 07:21:34;;;;;;;1.85;0.70;;;;;;;21.04;57.32;99952.44;5099359;28;20126;-59
2021/09/24 07:24:01;;;;;;;1.73;0.95;;;;;;;21.16;57.21;99962.03;5094417;28;20059;-59
2021/09/24 07:26:28;;;;;;;1.17;0.85;;;;;;;21.14;57.14;99953.06;5095216;28;20071;-59
2021/09/24 07:28:55;;;;;;;2.92;1.10;;;;;;;21.17;56.98;99949.50;5110168;28;20122;-59
2021/09/24 07:31:24;;;;;;;0.68;0.68;;;;;;;21.21;56.93;99953.25;5108130;28;20042;-59
2021/09/24 07:33:51;;;;;;;1.13;0.60;;;;;;;21.34;56.90;99959.66;5113521;28;20460;-59
2021/09/24 07:36:19;;;;;;;1.20;0.90;;;;;;;21.41;56.37;99957.03;5103528;28;20058;-59
2021/09/24 07:38:47;;;;;;;5.90;1.38;;;;;;;21.55;55.80;99953.72;5095302;28;20135;-59
2021/09/24 07:41:16;;;;;;;4.30;1.00;;;;;;;21.75;55.63;99949.72;5102231;28;20101;-59
2021/09/24 07:43:46;;;;;;;0.70;0.65;;;;;;;22.01;55.04;99955.56;5106705;28;20506;-59
2021/09/24 07:46:13;;;;;;;2.97;1.08;;;;;;;22.19;54.89;99932.44;5104727;27;20135;-60
2021/09/24 07:48:42;;;;;;;6.20;1.38;;;;;;;22.88;53.59;99959.00;5104227;28;20067;-60
2021/09/24 07:51:12;;;;;;;5.93;1.20;;;;;;;22.99;52.66;99929.94;5097814;28;20469;-60
2021/09/24 07:53:40;;;;;;;5.15;1.45;;;;;;;23.45;52.18;99964.06;5101183;27;20487;-60
2021/09/24 07:56:08;;;;;;;1.75;1.10;;;;;;;23.70;51.80;99959.63;5105382;28;20135;-60
2021/09/24 07:58:38;;;;;;;4.25;1.10;;;;;;;23.94;51.09;99951.84;5096965;28;20135;-58
2021/09/24 08:01:09;;;;;;;12.15;1.33;;;;;;;24.15;50.57;99957.81;5111925;27;20048;-58
2021/09/24 08:03:38;;;;;;;7.38;1.48;;;;;;;24.48;49.48;99959.06;5109252;28;20058;-58
2021/09/24 08:06:05;;;;;;;3.65;1.05;;;;;;;24.89;49.10;99962.81;5094887;28;20054;-58
2021/09/24 08:08:32;;;;;;;3.13;1.00;;;;;;;25.27;48.51;99964.44;5101294;28;20079;-58
2021/09/24 08:10:59;;;;;;;4.20;1.20;;;;;;;25.43;48.04;99969.03;5103480;28;20075;-59
2021/09/24 08:13:26;;;;;;;4.20;1.08;;;;;;;25.16;47.79;99972.09;5110738;27;20138;-59
2021/09/24 08:15:55;;;;;;;2.20;1.38;;;;;;;25.51;47.45;99967.91;5103226;28;20044;-58
2021/09/24 08:18:23;;;;;;;1.55;0.88;;;;;;;25.32;46.98;99974.66;5094282;28;20075;-58
2021/09/24 08:20:50;;;;;;;1.20;0.90;;;;;;;24.65;47.51;99978.47;5103659;28;20079;-57
2021/09/24 08:23:18;;;;;;;1.80;1.02;;;;;;;23.93;49.01;99978.69;5108208;28;20135;-58
2021/09/24 08:25:45;;;;;;;2.08;0.98;;;;;;;23.59;49.42;99981.41;5113698;28;20123;-58
2021/09/24 08:28:12;;;;;;;1.38;0.88;;;;;;;23.41;49.91;99970.53;5105048;27;20218;-58
2021/09/24 08:30:39;;;;;;;2.22;1.15;;;;;;;22.78;51.08;99988.09;5101520;28;20078;-59
2021/09/24 08:33:07;;;;;;;0.85;0.70;;;;;;;22.28;52.63;99980.56;5101820;28;20457;-58
2021/09/24 08:35:34;;;;;;;8.50;1.70;;;;;;;22.09;53.65;99989.88;5098273;28;20492;-58
2021/09/24 08:38:01;;;;;;;3.75;1.33;;;;;;;22.26;53.41;99983.78;5102422;28;20126;-58
2021/09/24 08:40:30;;;;;;;1.23;1.08;;;;;;;22.24;53.87;99977.63;5100099;28;20094;-58
2021/09/24 08:43:00;;;;;;;2.67;1.43;;;;;;;22.52;53.33;99979.44;5087956;27;20075;-57
2021/09/24 08:45:30;;;;;;;2.38;1.20;;;;;;;23.00;52.67;99966.56;5099544;27;20054;-58
2021/09/24 08:48:03;;;;;;;4.25;1.75;;;;;;;23.36;52.02;99956.63;5094621;28;20040;-58
2021/09/24 08:50:32;;;;;;;3.38;0.80;;;;;;;23.36;51.53;99973.72;5111013;28;20130;-58
2021/09/24 08:52:59;;;;;;;3.38;1.20;;;;;;;23.18;51.43;99989.69;5102343;28;20468;-58
2021/09/24 08:55:27;;;;;;;3.00;1.52;;;;;;;23.54;51.00;99976.03;5100436;28;20132;-56
2021/09/24 08:57:55;;;;;;;2.25;1.10;;;;;;;23.39;50.74;99963.59;5097126;28;20071;-57
2021/09/24 09:00:22;;;;;;;11.68;2.05;;;;;;;23.20;50.71;99975.88;5098472;28;20094;-57
2021/09/24 09:02:55;;;;;;;1.67;0.73;;;;;;;23.08;51.43;99976.09;5096991;28;20056;-56
2021/09/24 09:05:23;;;;;;;1.25;0.80;;;;;;;23.10;51.47;99965.13;5096634;28;20557;-56
2021/09/24 09:08:04;;;;;;;2.97;1.33;;;;;;;23.29;51.58;99967.91;5084177;28;21334;-57
2021/09/24 09:10:38;;;;;;;2.00;1.00;;;;;;;23.55;51.18;99969.13;5110200;28;20097;-56
2021/09/24 09:13:08;;;;;;;4.03;2.67;;;;;;;23.48;50.93;99969.00;5077807;28;20044;-57
2021/09/24 09:15:36;;;;;;;1.50;0.80;;;;;;;23.20;50.90;99963.66;5078997;28;20048;-56
2021/09/24 09:18:03;;;;;;;2.38;1.23;;;;;;;23.71;50.98;99975.53;5090171;28;20078;-56
2021/09/24 09:20:31;;;;;;;2.47;1.27;;;;;;;24.71;49.58;99970.34;5105188;27;20105;-57
2021/09/24 09:22:58;;;;;;;0.82;0.82;;;;;;;25.39;48.02;99980.44;5104665;28;20134;-58
2021/09/24 09:25:27;;;;;;;3.22;1.00;;;;;;;25.31;46.60;99978.75;5102839;28;20036;-57
2021/09/24 09:27:56;;;;;;;4.10;1.05;;;;;;;25.49;46.05;99959.72;5095820;28;20130;-57
2021/09/24 09:30:23;;;;;;;1.63;1.00;;;;;;;25.65;45.96;99981.50;5098280;28;20127;-57
2021/09/24 09:33:14;;;;;;;2.08;1.17;;;;;;;25.86;45.39;99963.69;5100645;28;20120;-58
2021/09/24 09:35:47;;;;;;;1.10;1.00;;;;;;;26.61;44.78;99978.41;5094652;28;20130;-58
2021/09/24 09:38:21;;;;;;;2.70;1.10;;;;;;;26.99;43.92;99974.00;5104711;28;20040;-58
2021/09/24 09:40:56;;;;;;;0.68;0.65;;;;;;;27.46;42.87;99972.03;5101764;28;20152;-59
2021/09/24 09:43:28;;;;;;;1.58;0.85;;;;;;;27.36;41.60;99981.44;5081612;28;20075;-58
2021/09/24 09:45:55;;;;;;;0.82;0.75;;;;;;;26.73;41.94;99986.59;5091836;28;20079;-59
2021/09/24 09:48:23;;;;;;;2.03;1.17;;;;;;;26.40;42.67;99976.25;5090564;28;20123;-59
2021/09/24 09:50:49;;;;;;;1.40;1.05;;;;;;;26.91;42.75;99984.63;5098765;28;20492;-58
2021/09/24 09:53:17;;;;;;;1.67;1.05;;;;;;;27.23;41.52;99983.88;5108458;28;20075;-58
2021/09/24 09:55:49;;;;;;;1.17;0.90;;;;;;;27.48;41.18;99983.06;5093478;28;20130;-58
2021/09/24 09:58:17;;;;;;;1.48;1.20;;;;;;;27.63;40.58;99997.00;5101755;28;20123;-58
2021/09/24 10:01:05;;;;;;;2.30;1.13;;;;;;;27.74;40.32;99991.25;5097842;28;20079;-59
2021/09/24 10:03:37;;;;;;;1.80;1.00;;;;;;;27.83;40.16;99976.53;5107593;27;20647;-58
2021/09/24 10:06:19;;;;;;;2.22;1.33;;;;;;;28.18;39.64;99986.28;5111073;27;20071;-58
2021/09/24 10:08:46;;;;;;;2.20;1.10;;;;;;;28.60;38.49;100001.75;5094894;28;20079;-59
2021/09/24 10:11:14;;;;;;;1.02;0.88;;;;;;;28.70;37.86;99995.16;5112740;28;20464;-58
2021/09/24 10:13:57;;;;;;;1.50;0.85;;;;;;;28.49;37.88;99998.94;5104399;27;20075;-60
2021/09/24 10:16:30;;;;;;;0.95;0.90;;;;;;;28.06;37.96;99994.09;5105011;28;20040;-58
2021/09/24 10:18:57;;;;;;;3.17;0.88;;;;;;;28.60;37.58;99998.88;5119128;27;20079;-58
2021/09/24 10:21:29;;;;;;;3.92;1.35;;;;;;;29.16;37.06;99996.94;5097006;28;20052;-58
2021/09/24 10:23:57;;;;;;;5.50;1.55;;;;;;;30.02;36.63;99988.44;5101646;28;20131;-59
2021/09/24 10:26:29;;;;;;;3.47;1.10;;;;;;;30.62;35.30;99981.16;5102431;28;20071;-59
2021/09/24 10:29:04;;;;;;;2.95;1.05;;;;;;;30.47;34.89;99979.72;5104061;28;20474;-58
2021/09/24 10:31:38;;;;;;;3.03;1.10;;;;;;;30.39;34.97;99990.53;5103998;28;20080;-59
2021/09/24 10:34:07;;;;;;;3.38;1.35;;;;;;;30.88;35.40;99985.38;5109411;28;20071;-59
2021/09/24 10:36:41;;;;;;;2.35;1.50;;;;;;;31.30;34.13;99985.16;5100769;27;20075;-58
2021/09/24 10:39:30;;;;;;;1.35;1.10;;;;;;;31.58;34.56;99986.78;5102294;28;20036;-58
2021/09/24 10:42:14;;;;;;;3.88;1.70;;;;;;;30.84;34.19;99987.50;5105155;28;20530;-58
2021/09/24 10:44:56;;;;;;;1.83;1.38;;;;;;;31.03;34.74;99990.94;5098979;28;20095;-58
2021/09/24 10:47:45;;;;;;;2.83;1.13;;;;;;;30.89;33.68;99987.00;5096722;28;20078;-58
2021/09/24 10:53:19;;;;;;;5.18;2.30;;;;;;;31.38;34.28;99981.78;5095760;28;20123;-58
2021/09/24 10:55:52;;;;;;;3.15;1.50;;;;;;;32.07;33.35;99984.31;5095487;28;20127;-57
2021/09/24 10:58:27;;;;;;;2.78;1.40;;;;;;;31.97;33.93;99982.44;5111410;27;20071;-57
2021/09/24 11:00:57;;;;;;;4.20;1.92;;;;;;;31.65;33.21;99978.00;5104778;28;20048;-58
2021/09/24 11:03:25;;;;;;;;;;;;;;;31.36;35.14;99978.50;5107379;28;20048;-57
2021/09/24 11:06:09;;;;;;;4.05;2.22;;;;;;;32.39;33.61;99971.28;5113417;28;19920;-59
2021/09/24 11:08:41;;;;;;;6.63;2.00;;;;;;;33.36;32.29;99969.97;5112766;28;20046;-57
2021/09/24 11:11:10;;;;;;;5.55;2.00;;;;;;;33.94;31.08;99991.22;5100491;28;20040;-57
2021/09/24 11:13:41;;;;;;;3.55;1.92;;;;;;;33.89;31.04;99982.28;5101661;28;20119;-58
2021/09/24 11:16:16;;;;;;;2.78;2.03;;;;;;;34.49;30.33;99971.06;5110049;27;20077;-57
2021/09/24 11:18:55;;;;;;;4.78;1.95;;;;;;;34.96;29.40;99950.19;5082558;28;20131;-57
2021/09/24 11:21:24;;;;;;;3.58;1.90;;;;;;;35.71;28.37;99971.00;5104523;28;20131;-57
2021/09/24 11:23:54;;;;;;;3.47;1.60;;;;;;;36.29;27.34;99964.78;5098893;28;20044;-57
2021/09/24 11:26:30;;;;;;;3.53;1.60;;;;;;;36.64;27.41;99967.63;5101567;28;20043;-58
2021/09/24 11:29:17;;;;;;;6.18;1.52;;;;;;;36.91;26.93;99969.91;5099413;28;20466;-59
2021/09/24 11:31:53;;;;;;;6.95;1.88;;;;;;;36.64;26.44;99975.56;5109620;28;20135;-63
2021/09/24 11:34:46;;;;;;;2.15;1.40;;;;;;;37.16;26.39;99968.09;5094905;28;20139;-58
2021/09/24 11:37:23;;;;;;;2.20;1.10;;;;;;;37.45;25.25;99974.41;5108258;28;20090;-58
2021/09/24 11:40:02;;;;;;;3.97;1.58;;;;;;;37.86;24.57;99969.31;5094373;28;20067;-58
2021/09/24 11:42:32;;;;;;;2.78;2.20;;;;;;;38.15;24.48;99936.00;5094249;28;20139;-58